• Join FlightAware (Why Join?)
  • Login
  • US Flag 
 
03:38PM EST


 

Airport Tracker/Info


-or-


 

Live Flight TrackerFlight Track Log ✈ N948CE ✈ 12-Jun-2013 ✈ KOSU - KPTK

Flight Track Log - Related Links

Times and Time Zones

All times are in EDT time to prevent confusion due to time zone crossing. See the N948CE flight status page for this flight to view local times or setup timezone preferences in your user account.

Time Position Orientation Groundspeed Altitude Reporting Facility
EDT Latitude Longitude Course Direction KTS MPH feet Rate Location/Type
03:01PM 40.0767 -83.0822 265° West 110 127 1,200  Level Indianapolis Center
03:02PM 40.0744 -83.1144 265° West 145 167 2,000 1,380 Climbing Indianapolis Center
03:03PM 40.0792 -83.1550 279° West 171 197 3,300 1,740 Climbing Indianapolis Center
03:04PM 40.1356 -83.1681 350° North 177 204 5,600 1,920 Climbing Indianapolis Center
03:05PM 40.1794 -83.1442 23° Northeast 175 201 7,300 1,560 Climbing Indianapolis Center
03:06PM 40.2244 -83.1047 34° Northeast 191 220 8,800 1,260 Climbing Indianapolis Center
03:07PM 40.2731 -83.0639 33° Northeast 204 235 10,000 1,500 Climbing Indianapolis Center
03:08PM 40.3231 -83.0236 32° Northeast 207 238 12,000 1,680 Climbing Indianapolis Center
03:09PM 40.3667 -82.9850 34° Northeast 190 219 13,500 900 Climbing Indianapolis Center
03:10PM 40.4139 -83.0042 343° North 175 201 13,900 180 Climbing Indianapolis Center
03:11PM 40.4650 -83.0428 330° Northwest 204 235 13,900  Level Indianapolis Center
03:12PM 40.5181 -83.0789 333° Northwest 203 234 13,900  Level Indianapolis Center
03:13PM 40.5678 -83.1156 331° Northwest 202 232 13,900  Level Indianapolis Center
03:14PM 40.6256 -83.1569 331° Northwest 201 231 13,900  Level Indianapolis Center
03:15PM 40.6722 -83.1906 331° Northwest 202 232 14,000 -60 Climbing Indianapolis Center
03:16PM 40.7222 -83.2267 331° Northwest 203 234 13,800 -660 Descending Indianapolis Center
03:17PM 40.7731 -83.2633 331° Northwest 206 237 12,700 -900 Descending Indianapolis Center
03:18PM 40.8300 -83.3019 333° Northwest 212 244 12,000 -360 Descending Indianapolis Center
03:19PM 40.8747 -83.3353 331° Northwest 190 219 12,000  Level Indianapolis Center
03:20PM 40.8986 -83.3550 328° Northwest 184 212 12,000 -120 Level Cleveland Center
03:21PM 40.9333 -83.3811 330° Northwest 173 199 11,900  Descending Cleveland Center
03:21PM 40.9572 -83.3953 336° Northwest 170 196 12,000 120 Climbing Indianapolis Center